createdAt,value
2019-05-12T00:00:55.556Z,82.00
2019-05-12T00:03:27.765Z,82.80
2019-05-12T00:05:59.732Z,83.80
2019-05-12T00:08:29.853Z,85.90
2019-05-12T00:11:01.936Z,86.60
2019-05-12T00:13:33.329Z,84.10
2019-05-12T00:16:08.814Z,86.70
2019-05-12T00:18:48.414Z,82.60
2019-05-12T00:21:29.994Z,82.10
2019-05-12T00:24:14.617Z,80.40
2019-05-12T00:27:08.507Z,79.50
2019-05-12T00:29:39.116Z,80.40
2019-05-12T00:32:14.635Z,81.20
2019-05-12T00:34:48.061Z,82.40
2019-05-12T00:37:18.706Z,81.40
2019-05-12T00:39:50.422Z,82.00
2019-05-12T00:42:20.917Z,83.80
2019-05-12T00:44:52.285Z,82.50
2019-05-12T00:47:27.930Z,81.90
2019-05-12T00:49:58.310Z,82.60
2019-05-12T00:52:30.241Z,82.30
2019-05-12T00:55:01.320Z,83.50
2019-05-12T00:57:31.737Z,84.90
2019-05-12T01:00:02.735Z,80.50
2019-05-12T01:02:33.548Z,79.40
2019-05-12T01:05:04.972Z,82.70
2019-05-12T01:07:35.179Z,84.10
2019-05-12T01:10:08.463Z,82.10
2019-05-12T01:12:39.996Z,81.30
2019-05-12T01:15:11.432Z,82.30
2019-05-12T01:17:42.723Z,83.20
2019-05-12T01:20:14.518Z,80.40
2019-05-12T01:22:50.363Z,80.90
2019-05-12T01:25:22.208Z,82.30
2019-05-12T01:27:52.838Z,81.50
2019-05-12T01:33:03.449Z,81.00
2019-05-12T01:35:38.580Z,82.10
2019-05-12T01:38:09.219Z,79.80
2019-05-12T01:40:41.889Z,79.90
2019-05-12T01:43:13.820Z,81.70
2019-05-12T01:45:48.295Z,81.50
2019-05-12T01:48:23.045Z,82.70
2019-05-12T01:50:54.267Z,81.00
2019-05-12T01:53:25.432Z,86.80
2019-05-12T01:55:59.839Z,83.70
2019-05-12T01:58:38.208Z,84.50
2019-05-12T02:01:08.581Z,82.00
2019-05-12T02:03:58.455Z,83.50
2019-05-12T02:06:50.030Z,83.50
2019-05-12T02:09:21.517Z,83.50
2019-05-12T02:11:51.986Z,82.80
2019-05-12T02:14:22.466Z,82.40
2019-05-12T02:16:52.583Z,79.50
2019-05-12T02:19:23.057Z,82.90
2019-05-12T02:21:54.659Z,81.30
2019-05-12T02:24:29.834Z,82.60
2019-05-12T02:26:58.720Z,83.70
2019-05-12T02:29:34.984Z,84.50
2019-05-12T02:32:06.557Z,84.30
2019-05-12T02:34:38.815Z,84.00
2019-05-12T02:37:10.128Z,84.90
2019-05-12T02:39:40.257Z,87.20
2019-05-12T02:42:10.868Z,86.70
2019-05-12T02:44:44.337Z,87.40
2019-05-12T02:47:18.534Z,88.10
2019-05-12T02:49:48.740Z,86.60
2019-05-12T02:52:24.963Z,84.20
2019-05-12T02:55:00.355Z,86.40
2019-05-12T02:57:29.114Z,87.20
2019-05-12T03:00:04.722Z,86.50
2019-05-12T03:02:37.741Z,87.80
2019-05-12T03:05:14.801Z,83.80
2019-05-12T03:07:49.626Z,84.60
2019-05-12T03:10:24.539Z,84.60
2019-05-12T03:12:55.828Z,84.40
2019-05-12T03:15:27.795Z,82.90
2019-05-12T03:18:01.195Z,85.60
2019-05-12T03:20:35.043Z,85.90
2019-05-12T03:23:07.155Z,84.70
2019-05-12T03:25:39.249Z,84.50
2019-05-12T03:28:10.882Z,81.80
2019-05-12T03:30:47.526Z,82.40
2019-05-12T03:33:19.018Z,84.30
2019-05-12T03:35:52.446Z,85.30
2019-05-12T03:38:20.145Z,84.20
2019-05-12T03:40:55.117Z,85.10
2019-05-12T03:43:25.317Z,79.90
2019-05-12T03:45:57.698Z,79.00
2019-05-12T03:48:30.431Z,79.50
2019-05-12T03:51:05.726Z,78.60
2019-05-12T03:53:36.816Z,78.60
2019-05-12T03:56:10.524Z,77.80
2019-05-12T03:58:45.230Z,78.90
2019-05-12T04:01:17.760Z,80.90
2019-05-12T04:03:48.592Z,77.80
2019-05-12T04:06:20.677Z,78.50
2019-05-12T04:08:55.027Z,76.40
2019-05-12T04:11:35.865Z,76.20
2019-05-12T04:14:08.431Z,74.40
2019-05-12T04:16:40.391Z,74.40
2019-05-12T04:19:14.610Z,75.20
2019-05-12T04:21:46.669Z,74.50
2019-05-12T04:24:16.820Z,75.60
2019-05-12T04:26:47.777Z,71.90
2019-05-12T04:29:24.819Z,77.00
2019-05-12T04:31:54.578Z,73.90
2019-05-12T04:34:25.208Z,74.40
2019-05-12T04:36:59.410Z,71.80
2019-05-12T04:39:34.064Z,72.90
2019-05-12T04:42:07.157Z,74.20
2019-05-12T04:44:38.324Z,72.60
2019-05-12T04:47:14.607Z,72.10
2019-05-12T04:49:47.589Z,71.10
2019-05-12T04:52:19.851Z,69.90
2019-05-12T04:54:54.996Z,70.50
2019-05-12T04:57:25.757Z,72.40
2019-05-12T04:59:56.899Z,72.00
2019-05-12T05:02:27.041Z,71.00
2019-05-12T05:04:57.171Z,71.90
2019-05-12T05:07:37.757Z,72.80
2019-05-12T05:10:10.141Z,71.90
2019-05-12T05:12:47.869Z,70.80
2019-05-12T05:15:18.131Z,70.30
2019-05-12T05:17:54.307Z,72.30
2019-05-12T05:20:25.215Z,72.80
2019-05-12T05:22:57.429Z,69.60
2019-05-12T05:25:27.543Z,70.40
2019-05-12T05:27:57.964Z,70.00
2019-05-12T05:30:28.075Z,71.50
2019-05-12T05:32:58.543Z,69.40
2019-05-12T05:35:35.139Z,70.60
2019-05-12T05:38:04.444Z,68.50
2019-05-12T05:46:02.665Z,69.30
2019-05-12T05:48:32.263Z,67.90
2019-05-12T05:51:07.417Z,69.70
2019-05-12T05:53:33.835Z,69.80
2019-05-12T05:56:05.220Z,67.20
2019-05-12T05:58:40.380Z,68.00
2019-05-12T06:01:09.111Z,67.60
2019-05-12T06:03:41.278Z,66.00
2019-05-12T06:06:15.279Z,67.80
2019-05-12T06:09:03.699Z,68.70
2019-05-12T06:11:37.438Z,67.00
2019-05-12T06:14:12.850Z,65.50
2019-05-12T06:16:53.802Z,66.50
2019-05-12T06:19:26.154Z,64.90
2019-05-12T06:22:00.341Z,66.80
2019-05-12T06:24:38.268Z,63.60
2019-05-12T06:27:15.166Z,67.10
2019-05-12T06:29:40.243Z,66.00
2019-05-12T06:32:14.030Z,64.20
2019-05-12T06:34:45.429Z,64.10
2019-05-12T06:37:23.522Z,64.00
2019-05-12T06:39:58.520Z,63.00
2019-05-12T06:42:27.419Z,63.20
2019-05-12T06:44:58.732Z,63.40
2019-05-12T06:47:29.982Z,64.30
2019-05-12T06:50:00.165Z,63.00
2019-05-12T06:52:30.350Z,61.40
2019-05-12T06:55:00.812Z,65.10
2019-05-12T06:57:34.298Z,65.30
2019-05-12T07:00:05.849Z,63.30
2019-05-12T07:02:49.021Z,61.30
2019-05-12T07:05:14.710Z,63.00
2019-05-12T07:07:53.444Z,61.30
2019-05-12T07:10:42.979Z,56.60
2019-05-12T07:13:05.743Z,57.30
2019-05-12T07:15:40.407Z,60.30
2019-05-12T07:18:17.646Z,55.20
2019-05-12T07:20:46.691Z,56.30
2019-05-12T07:23:25.893Z,58.40
2019-05-12T07:26:14.032Z,56.40
2019-05-12T07:28:46.027Z,58.30
2019-05-12T07:31:17.245Z,60.00
2019-05-12T07:33:54.032Z,57.20
2019-05-12T07:36:27.369Z,56.20
2019-05-12T07:39:03.942Z,55.80
2019-05-12T07:41:34.252Z,56.80
2019-05-12T07:44:06.367Z,54.80
2019-05-12T07:46:39.753Z,52.70
2019-05-12T07:49:08.656Z,56.30
2019-05-12T07:51:40.647Z,53.80
2019-05-12T07:54:10.660Z,51.90
2019-05-12T07:56:55.298Z,52.70
2019-05-12T07:59:34.170Z,49.50
2019-05-12T08:01:59.407Z,49.50
2019-05-12T08:04:31.696Z,51.10
2019-05-12T08:07:06.673Z,48.80
2019-05-12T08:09:43.216Z,48.40
2019-05-12T08:12:20.819Z,49.80
2019-05-12T08:14:54.177Z,41.30
2019-05-12T08:17:28.204Z,43.20
2019-05-12T08:19:59.003Z,40.80
2019-05-12T08:22:34.627Z,40.20
2019-05-12T08:25:09.392Z,40.00
2019-05-12T08:28:14.741Z,39.30
2019-05-12T08:30:40.416Z,37.90
2019-05-12T08:33:19.115Z,39.60
2019-05-12T08:35:49.816Z,38.70
2019-05-12T08:38:21.291Z,35.70
2019-05-12T08:40:56.523Z,33.10
2019-05-12T08:43:47.212Z,33.70
2019-05-12T08:46:18.598Z,36.80
2019-05-12T08:48:51.655Z,36.70
2019-05-12T08:51:21.320Z,35.40
2019-05-12T08:53:53.904Z,36.50
2019-05-12T08:56:26.222Z,39.00
2019-05-12T08:59:00.678Z,34.30
2019-05-12T09:01:31.479Z,29.10
2019-05-12T09:04:12.102Z,31.00
2019-05-12T09:06:50.142Z,33.00
2019-05-12T09:09:25.351Z,30.60
2019-05-12T09:11:57.120Z,30.50
2019-05-12T09:14:35.541Z,33.30
2019-05-12T09:17:07.112Z,31.90
2019-05-12T09:22:20.732Z,45.00
2019-05-12T09:24:53.268Z,29.30
2019-05-12T09:27:24.720Z,30.00
2019-05-12T09:30:17.680Z,31.10
2019-05-12T09:32:50.286Z,29.50
2019-05-12T09:35:21.160Z,29.20
2019-05-12T09:37:53.589Z,28.20
2019-05-12T09:40:28.452Z,76.90
2019-05-12T09:43:00.296Z,28.00
2019-05-12T09:45:33.392Z,24.70
2019-05-12T09:48:14.215Z,25.80
2019-05-12T09:50:51.550Z,38.40
2019-05-12T09:53:23.737Z,42.30
2019-05-12T09:55:58.655Z,44.80
2019-05-12T09:58:28.820Z,45.10
2019-05-12T10:03:39.925Z,46.10
2019-05-12T10:06:17.962Z,25.30
2019-05-12T10:08:46.531Z,23.90
2019-05-12T10:11:21.053Z,25.60
2019-05-12T10:14:00.201Z,26.10
2019-05-12T10:16:30.525Z,26.90
2019-05-12T10:19:35.087Z,26.20
2019-05-12T10:34:46.405Z,66.90
2019-05-12T10:37:19.316Z,24.90
2019-05-12T10:39:48.948Z,24.90
2019-05-12T10:42:20.886Z,25.30
2019-05-12T10:44:54.488Z,26.40
2019-05-12T10:47:30.898Z,24.70
2019-05-12T10:50:03.737Z,23.40
2019-05-12T10:52:38.841Z,24.10
2019-05-12T10:55:06.958Z,23.70
2019-05-12T11:00:19.719Z,69.20
2019-05-12T11:41:00.759Z,22.20
2019-05-12T11:43:40.192Z,22.20
2019-05-12T11:46:14.712Z,22.30
2019-05-12T11:48:50.510Z,23.40
2019-05-12T11:51:29.183Z,22.50
2019-05-12T11:53:57.816Z,22.40
2019-05-12T11:56:40.348Z,22.40
2019-05-12T11:59:09.953Z,21.10
2019-05-12T12:01:47.480Z,21.40
2019-05-12T12:04:26.868Z,21.10
2019-05-12T12:06:56.959Z,21.40
2019-05-12T12:09:27.895Z,23.20
2019-05-12T12:12:05.546Z,20.70
2019-05-12T12:14:31.879Z,21.60
2019-05-12T12:17:04.556Z,22.90
2019-05-12T12:19:43.301Z,23.60
2019-05-12T12:22:08.227Z,22.00
2019-05-12T12:24:38.514Z,22.10
2019-05-12T12:27:10.470Z,22.10
2019-05-12T12:29:40.575Z,21.40
2019-05-12T12:32:16.869Z,22.20
2019-05-12T12:34:50.560Z,20.50
2019-05-12T12:37:24.005Z,21.40
2019-05-12T12:39:55.280Z,20.10
2019-05-12T12:42:30.255Z,24.00
2019-05-12T12:45:01.080Z,26.10
2019-05-12T12:47:37.976Z,28.40
2019-05-12T12:50:06.962Z,27.20
2019-05-12T12:52:38.767Z,26.90
2019-05-12T12:55:19.783Z,26.00
2019-05-12T12:57:52.124Z,30.00
2019-05-12T13:00:32.069Z,29.90
2019-05-12T13:02:54.595Z,28.40
2019-05-12T13:05:25.481Z,28.60
2019-05-12T13:45:54.165Z,24.30
2019-05-12T13:53:26.869Z,12.40
2019-05-12T13:55:58.471Z,14.00
2019-05-12T13:58:34.874Z,14.50
2019-05-12T14:01:21.047Z,11.10
2019-05-12T14:03:39.940Z,11.40
2019-05-12T14:06:10.228Z,13.30
2019-05-12T14:08:40.373Z,15.10
2019-05-12T14:11:23.900Z,16.40
2019-05-12T14:13:54.124Z,17.00
2019-05-12T14:16:24.472Z,15.40
2019-05-12T14:19:00.352Z,13.10
2019-05-12T14:21:41.251Z,10.70
2019-05-12T14:24:09.846Z,9.70
2019-05-12T14:26:45.462Z,6.90
2019-05-12T14:29:20.501Z,7.40
2019-05-12T14:31:54.475Z,7.50
2019-05-12T14:34:24.994Z,6.40
2019-05-12T14:37:06.889Z,5.20
2019-05-12T14:39:31.442Z,4.80
2019-05-12T14:42:04.357Z,6.70
2019-05-12T14:44:43.973Z,8.00
2019-05-12T14:47:10.285Z,8.90
2019-05-12T14:49:40.432Z,8.20
2019-05-12T14:52:14.330Z,7.30
2019-05-12T14:54:46.765Z,5.40
2019-05-12T14:57:37.260Z,5.30
2019-05-12T15:00:34.377Z,3.80
2019-05-12T15:03:16.288Z,5.80
2019-05-12T15:06:10.464Z,6.70
2019-05-12T15:09:03.410Z,4.80
2019-05-12T15:11:39.165Z,3.90
2019-05-12T15:14:13.591Z,1.70
2019-05-12T15:16:51.203Z,1.00
2019-05-12T15:19:33.417Z,1.00
2019-05-12T15:22:12.436Z,2.40
2019-05-12T15:24:49.314Z,2.80
2019-05-12T15:27:42.396Z,4.10
2019-05-12T15:30:20.277Z,3.50
2019-05-12T15:32:41.738Z,1.70
2019-05-12T15:35:18.558Z,2.70
2019-05-12T15:37:57.424Z,3.30
2019-05-12T15:40:37.663Z,2.00
2019-05-12T15:43:09.297Z,3.00
2019-05-12T15:45:39.848Z,3.20
2019-05-12T15:48:14.434Z,3.20
2019-05-12T15:50:47.804Z,2.10
2019-05-12T15:53:27.176Z,3.40
2019-05-12T15:55:58.756Z,1.30
2019-05-12T15:58:35.224Z,1.10
2019-05-12T16:01:06.781Z,1.20
2019-05-12T16:03:39.206Z,1.80
2019-05-12T16:06:11.939Z,2.60
2019-05-12T16:08:43.124Z,1.90
2019-05-12T16:11:28.016Z,1.40
2019-05-12T16:14:05.473Z,1.00
2019-05-12T16:16:42.447Z,1.00
2019-05-12T16:19:15.206Z,1.30
2019-05-12T16:21:47.698Z,2.20
2019-05-12T16:25:11.521Z,3.00
2019-05-12T16:27:51.618Z,4.90
2019-05-12T16:30:27.262Z,4.00
2019-05-12T16:33:20.929Z,5.40
2019-05-12T16:36:34.738Z,3.10
2019-05-12T16:39:13.495Z,3.60
2019-05-12T16:42:29.265Z,2.90
2019-05-12T16:45:08.339Z,3.10
2019-05-12T16:47:36.839Z,3.80
2019-05-12T17:00:07.124Z,1.00
2019-05-12T17:02:58.030Z,1.00
2019-05-12T17:05:41.431Z,1.10
2019-05-12T17:08:24.051Z,2.20
2019-05-12T17:26:57.201Z,7.60
2019-05-12T17:34:34.547Z,8.70
2019-05-12T17:46:07.149Z,8.00
2019-05-12T18:03:22.029Z,8.60
2019-05-12T18:05:59.075Z,10.20
2019-05-12T18:09:03.949Z,8.90
2019-05-12T18:11:37.024Z,8.90
2019-05-12T18:15:14.964Z,9.30
2019-05-12T18:17:53.339Z,9.20
2019-05-12T18:23:10.308Z,10.30
2019-05-12T18:26:02.990Z,9.10
2019-05-12T18:28:54.542Z,10.60
2019-05-12T18:34:56.467Z,11.60
2019-05-12T18:41:40.562Z,10.00
2019-05-12T18:44:28.868Z,11.60
2019-05-12T18:47:53.841Z,11.40
2019-05-12T18:51:11.795Z,11.30
2019-05-12T18:53:54.272Z,11.90
2019-05-12T18:56:35.620Z,12.40
2019-05-12T18:59:13.718Z,12.50
2019-05-12T19:01:43.489Z,12.90
2019-05-12T19:04:15.057Z,12.60
2019-05-12T19:06:45.732Z,13.60
2019-05-12T19:09:16.153Z,12.60
2019-05-12T19:11:47.403Z,13.30
2019-05-12T19:14:19.844Z,14.00
2019-05-12T19:16:55.007Z,14.00
2019-05-12T19:19:28.766Z,13.50
2019-05-12T19:22:08.523Z,14.10
2019-05-12T19:24:36.340Z,14.10
2019-05-12T19:27:18.990Z,13.90
2019-05-12T19:29:49.280Z,14.60
2019-05-12T19:32:28.049Z,15.00
2019-05-12T19:34:59.473Z,15.10
2019-05-12T19:37:30.820Z,15.60
2019-05-12T19:40:11.726Z,16.40
2019-05-12T19:42:36.102Z,16.10
2019-05-12T19:45:35.337Z,15.90
2019-05-12T19:48:23.788Z,16.40
2019-05-12T19:50:56.816Z,15.90
2019-05-12T19:53:35.679Z,15.70
2019-05-12T19:56:23.604Z,16.40
2019-05-12T19:59:20.537Z,16.40
2019-05-12T20:01:54.699Z,17.20
2019-05-12T20:04:33.183Z,16.20
2019-05-12T20:06:58.387Z,16.20
2019-05-12T20:09:55.885Z,17.30
2019-05-12T20:12:24.159Z,18.40
2019-05-12T20:14:56.929Z,17.90
2019-05-12T20:17:26.260Z,19.00
2019-05-12T20:19:55.772Z,20.10
2019-05-12T20:22:28.278Z,19.80
2019-05-12T20:25:01.171Z,20.70
2019-05-12T20:27:34.305Z,21.30
2019-05-12T20:30:08.987Z,20.80
2019-05-12T20:32:37.279Z,21.40
2019-05-12T20:35:08.562Z,23.30
2019-05-12T20:37:44.151Z,24.10
2019-05-12T20:40:13.745Z,24.40
2019-05-12T20:43:06.992Z,23.30
2019-05-12T20:45:16.763Z,24.00
2019-05-12T20:47:48.469Z,22.80
2019-05-12T20:50:25.942Z,24.20
2019-05-12T20:52:55.864Z,23.90
2019-05-12T20:55:23.419Z,25.40
2019-05-12T20:57:56.973Z,26.80
2019-05-12T21:00:27.295Z,28.80
2019-05-12T21:02:57.961Z,29.60
2019-05-12T21:06:01.413Z,30.60
2019-05-12T21:08:36.659Z,32.00
2019-05-12T21:11:07.188Z,33.90
2019-05-12T21:13:37.337Z,34.60
2019-05-12T21:16:16.567Z,33.00
2019-05-12T21:18:55.884Z,33.90
2019-05-12T21:21:27.618Z,35.70
2019-05-12T21:23:54.118Z,36.60
2019-05-12T21:26:28.487Z,37.40
2019-05-12T21:28:57.702Z,37.80
2019-05-12T21:31:30.888Z,39.60
2019-05-12T21:33:59.905Z,39.60
2019-05-12T21:36:30.465Z,40.90
2019-05-12T21:39:08.298Z,39.80
2019-05-12T21:41:40.803Z,41.20
2019-05-12T21:44:11.392Z,42.60
2019-05-12T21:46:47.494Z,40.20
2019-05-12T21:49:15.549Z,38.60
2019-05-12T21:51:50.568Z,39.00
2019-05-12T21:54:18.304Z,41.30
2019-05-12T21:56:51.699Z,42.50
2019-05-12T21:59:23.391Z,43.40
2019-05-12T22:01:55.141Z,44.20
2019-05-12T22:04:33.016Z,43.30
2019-05-12T22:06:59.598Z,41.30
2019-05-12T22:09:32.911Z,41.00
2019-05-12T22:12:07.535Z,42.00
2019-05-12T22:14:41.002Z,42.20
2019-05-12T22:17:13.653Z,42.80
2019-05-12T22:19:44.405Z,44.40
2019-05-12T22:22:19.675Z,44.50
2019-05-12T22:24:49.462Z,46.40
2019-05-12T22:27:26.763Z,45.60
2019-05-12T22:29:53.381Z,46.10
2019-05-12T22:32:25.277Z,46.10
2019-05-12T22:37:34.998Z,46.40
2019-05-12T22:40:06.173Z,47.30
2019-05-12T22:42:38.646Z,47.30
2019-05-12T22:45:15.101Z,45.60
2019-05-12T22:47:52.621Z,47.10
2019-05-12T22:50:19.188Z,47.00
2019-05-12T22:52:49.669Z,45.80
2019-05-12T22:55:21.131Z,47.50
2019-05-12T22:57:57.813Z,45.70
2019-05-12T23:00:28.205Z,46.80
2019-05-12T23:03:09.343Z,44.80
2019-05-12T23:05:32.944Z,46.00
2019-05-12T23:08:14.098Z,45.90
2019-05-12T23:10:51.366Z,46.90
2019-05-12T23:13:17.808Z,47.70
2019-05-12T23:15:49.521Z,49.20
2019-05-12T23:18:26.904Z,47.50
2019-05-12T23:20:55.363Z,48.60
2019-05-12T23:23:28.423Z,48.20
2019-05-12T23:26:00.496Z,49.90
2019-05-12T23:28:33.631Z,50.40
2019-05-12T23:31:04.284Z,52.20
2019-05-12T23:33:36.943Z,51.90
2019-05-12T23:36:15.717Z,50.50
2019-05-12T23:38:44.023Z,51.20
2019-05-12T23:41:14.287Z,50.30
2019-05-12T23:43:46.663Z,52.30
2019-05-12T23:46:17.205Z,52.50
2019-05-12T23:48:47.321Z,53.00
2019-05-12T23:51:25.494Z,53.10
2019-05-12T23:53:57.150Z,52.20
2019-05-12T23:56:29.008Z,53.60
2019-05-12T23:58:59.963Z,53.10
